sensor_id;sensor_type;location;lat;lon;timestamp;pressure;altitude;pressure_sealevel;temperature;humidity
7337;BME280;54510;42.016;23.098;2022-12-26T00:00:18;-21300.97;;;6.05;69.15
7337;BME280;54510;42.016;23.098;2022-12-26T00:02:43;-21304.59;;;6.18;69.44
7337;BME280;54510;42.016;23.098;2022-12-26T00:05:08;-21295.38;;;5.84;70.00
7337;BME280;54510;42.016;23.098;2022-12-26T00:07:34;-21298.75;;;5.97;70.55
7337;BME280;54510;42.016;23.098;2022-12-26T00:09:59;-21293.28;;;5.77;70.71
7337;BME280;54510;42.016;23.098;2022-12-26T00:12:25;-21294.69;;;5.82;70.42
7337;BME280;54510;42.016;23.098;2022-12-26T00:14:50;-21294.28;;;5.80;71.11
7337;BME280;54510;42.016;23.098;2022-12-26T00:17:16;-21295.38;;;5.84;70.54
7337;BME280;54510;42.016;23.098;2022-12-26T00:19:41;-21296.22;;;5.87;70.16
7337;BME280;54510;42.016;23.098;2022-12-26T00:22:07;-21292.03;;;5.72;70.09
7337;BME280;54510;42.016;23.098;2022-12-26T00:24:33;-21294.00;;;5.79;70.29
7337;BME280;54510;42.016;23.098;2022-12-26T00:26:58;-21294.84;;;5.82;70.16
7337;BME280;54510;42.016;23.098;2022-12-26T00:29:23;-21291.47;;;5.70;70.39
7337;BME280;54510;42.016;23.098;2022-12-26T00:31:49;-21290.91;;;5.68;69.95
7337;BME280;54510;42.016;23.098;2022-12-26T00:34:14;-21286.72;;;5.53;71.08
7337;BME280;54510;42.016;23.098;2022-12-26T00:36:40;-21285.19;;;5.47;71.71
7337;BME280;54510;42.016;23.098;2022-12-26T00:39:05;-21287.84;;;5.57;71.14
7337;BME280;54510;42.016;23.098;2022-12-26T00:41:32;-21284.78;;;5.46;71.82
7337;BME280;54510;42.016;23.098;2022-12-26T00:43:57;-21285.34;;;5.48;71.10
7337;BME280;54510;42.016;23.098;2022-12-26T00:46:24;-21283.38;;;5.41;71.67
7337;BME280;54510;42.016;23.098;2022-12-26T00:48:49;-21275.84;;;5.13;72.21
7337;BME280;54510;42.016;23.098;2022-12-26T00:51:15;-21282.41;;;5.37;71.36
7337;BME280;54510;42.016;23.098;2022-12-26T00:53:41;-21284.78;;;5.46;70.61
7337;BME280;54510;42.016;23.098;2022-12-26T00:56:06;-21282.81;;;5.39;71.01
7337;BME280;54510;42.016;23.098;2022-12-26T00:58:32;-21283.94;;;5.43;71.04
7337;BME280;54510;42.016;23.098;2022-12-26T01:01:13;-21284.22;;;5.44;70.91
7337;BME280;54510;42.016;23.098;2022-12-26T01:03:39;-21279.19;;;5.26;70.68
7337;BME280;54510;42.016;23.098;2022-12-26T01:06:05;-21279.06;;;5.25;70.58
7337;BME280;54510;42.016;23.098;2022-12-26T01:08:31;-21279.19;;;5.26;71.37
7337;BME280;54510;42.016;23.098;2022-12-26T01:10:56;-21274.44;;;5.08;71.08
7337;BME280;54510;42.016;23.098;2022-12-26T01:13:22;-21275.97;;;5.14;71.16
7337;BME280;54510;42.016;23.098;2022-12-26T01:15:49;-21273.47;;;5.05;71.56
7337;BME280;54510;42.016;23.098;2022-12-26T01:18:15;-21273.06;;;5.03;71.79
7337;BME280;54510;42.016;23.098;2022-12-26T01:20:41;-21277.38;;;5.19;71.49
7337;BME280;54510;42.016;23.098;2022-12-26T01:23:06;-21271.38;;;4.97;71.54
7337;BME280;54510;42.016;23.098;2022-12-26T01:25:31;-21275.16;;;5.11;72.07
7337;BME280;54510;42.016;23.098;2022-12-26T01:27:57;-21274.03;;;5.07;71.90
7337;BME280;54510;42.016;23.098;2022-12-26T01:30:23;-21268.00;;;4.85;72.39
7337;BME280;54510;42.016;23.098;2022-12-26T01:32:48;-21272.50;;;5.01;72.72
7337;BME280;54510;42.016;23.098;2022-12-26T01:35:14;-21274.72;;;5.09;72.72
7337;BME280;54510;42.016;23.098;2022-12-26T01:37:39;-21273.59;;;5.05;72.47
7337;BME280;54510;42.016;23.098;2022-12-26T01:40:05;-21268.84;;;4.88;72.87
7337;BME280;54510;42.016;23.098;2022-12-26T01:42:36;-21260.59;;;4.58;74.27
7337;BME280;54510;42.016;23.098;2022-12-26T01:45:30;-21267.47;;;4.83;73.71
7337;BME280;54510;42.016;23.098;2022-12-26T01:53:17;-21278.22;;;5.22;71.28
7337;BME280;54510;42.016;23.098;2022-12-26T01:55:49;-21277.50;;;5.20;71.12
7337;BME280;54510;42.016;23.098;2022-12-26T01:58:21;-21280.72;;;5.31;70.96
7337;BME280;54510;42.016;23.098;2022-12-26T02:00:48;-21274.72;;;5.09;71.18
7337;BME280;54510;42.016;23.098;2022-12-26T02:03:14;-21273.47;;;5.05;71.13
7337;BME280;54510;42.016;23.098;2022-12-26T02:05:59;-21280.88;;;5.32;70.95
7337;BME280;54510;42.016;23.098;2022-12-26T02:08:28;-21286.47;;;5.52;69.94
7337;BME280;54510;42.016;23.098;2022-12-26T02:13:22;-21271.50;;;4.98;70.96
7337;BME280;54510;42.016;23.098;2022-12-26T02:15:49;-21263.28;;;4.68;71.85
7337;BME280;54510;42.016;23.098;2022-12-26T02:18:14;-21261.88;;;4.63;72.95
7337;BME280;54510;42.016;23.098;2022-12-26T02:21:12;-21273.47;;;5.05;71.86
7337;BME280;54510;42.016;23.098;2022-12-26T02:40:33;-21280.31;;;5.30;69.31
7337;BME280;54510;42.016;23.098;2022-12-26T02:49:17;-21272.50;;;5.01;69.43
7337;BME280;54510;42.016;23.098;2022-12-26T02:52:11;-21271.22;;;4.97;69.50
7337;BME280;54510;42.016;23.098;2022-12-26T02:55:05;-21267.31;;;4.83;69.44
7337;BME280;54510;42.016;23.098;2022-12-26T03:00:40;-21258.94;;;4.52;70.66
7337;BME280;54510;42.016;23.098;2022-12-26T03:03:29;-21254.03;;;4.34;70.64
7337;BME280;54510;42.016;23.098;2022-12-26T03:06:21;-21265.78;;;4.77;70.93
7337;BME280;54510;42.016;23.098;2022-12-26T03:09:12;-21263.41;;;4.68;70.27
7337;BME280;54510;42.016;23.098;2022-12-26T03:12:02;-21261.72;;;4.62;70.37
7337;BME280;54510;42.016;23.098;2022-12-26T03:14:53;-21258.50;;;4.51;70.76
7337;BME280;54510;42.016;23.098;2022-12-26T03:20:08;-21252.91;;;4.30;71.13
7337;BME280;54510;42.016;23.098;2022-12-26T03:25:04;-21258.78;;;4.52;71.16
7337;BME280;54510;42.016;23.098;2022-12-26T03:27:49;-21255.84;;;4.41;71.27
7337;BME280;54510;42.016;23.098;2022-12-26T03:30:14;-21256.56;;;4.44;71.34
7337;BME280;54510;42.016;23.098;2022-12-26T03:32:59;-21254.47;;;4.36;71.07
7337;BME280;54510;42.016;23.098;2022-12-26T03:35:26;-21252.66;;;4.29;71.93
7337;BME280;54510;42.016;23.098;2022-12-26T03:38:12;-21256.41;;;4.43;71.91
7337;BME280;54510;42.016;23.098;2022-12-26T03:40:50;-21260.19;;;4.57;71.45
7337;BME280;54510;42.016;23.098;2022-12-26T03:43:46;-21260.75;;;4.59;71.03
7337;BME280;54510;42.016;23.098;2022-12-26T03:46:39;-21259.34;;;4.54;71.52
7337;BME280;54510;42.016;23.098;2022-12-26T03:49:27;-21259.50;;;4.54;71.53
7337;BME280;54510;42.016;23.098;2022-12-26T03:52:27;-21261.16;;;4.60;70.75
7337;BME280;54510;42.016;23.098;2022-12-26T03:55:18;-21254.88;;;4.37;70.78
7337;BME280;54510;42.016;23.098;2022-12-26T03:58:14;-21251.09;;;4.24;71.06
7337;BME280;54510;42.016;23.098;2022-12-26T04:01:00;-21251.66;;;4.26;71.29
7337;BME280;54510;42.016;23.098;2022-12-26T04:03:47;-21252.66;;;4.29;71.30
7337;BME280;54510;42.016;23.098;2022-12-26T04:06:38;-21250.13;;;4.20;71.45
7337;BME280;54510;42.016;23.098;2022-12-26T04:09:37;-21250.41;;;4.21;72.62
7337;BME280;54510;42.016;23.098;2022-12-26T04:12:24;-21249.56;;;4.18;71.98
7337;BME280;54510;42.016;23.098;2022-12-26T04:15:32;-21253.75;;;4.33;71.92
7337;BME280;54510;42.016;23.098;2022-12-26T04:18:24;-21255.59;;;4.40;71.58
7337;BME280;54510;42.016;23.098;2022-12-26T04:24:04;-21254.03;;;4.34;71.79
7337;BME280;54510;42.016;23.098;2022-12-26T04:27:01;-21253.75;;;4.33;71.52
7337;BME280;54510;42.016;23.098;2022-12-26T04:29:47;-21253.75;;;4.33;71.10
7337;BME280;54510;42.016;23.098;2022-12-26T04:32:38;-21248.44;;;4.14;71.71
7337;BME280;54510;42.016;23.098;2022-12-26T04:35:30;-21231.38;;;3.52;73.28
7337;BME280;54510;42.016;23.098;2022-12-26T04:38:24;-21238.94;;;3.80;74.15
7337;BME280;54510;42.016;23.098;2022-12-26T04:41:10;-21244.69;;;4.01;73.41
7337;BME280;54510;42.016;23.098;2022-12-26T04:43:57;-21247.06;;;4.09;72.61
7337;BME280;54510;42.016;23.098;2022-12-26T04:46:38;-21236.28;;;3.70;72.44
7337;BME280;54510;42.016;23.098;2022-12-26T04:49:07;-21245.94;;;4.05;72.58
7337;BME280;54510;42.016;23.098;2022-12-26T04:51:52;-21236.84;;;3.72;73.56
7337;BME280;54510;42.016;23.098;2022-12-26T04:54:18;-21227.31;;;3.38;74.98
7337;BME280;54510;42.016;23.098;2022-12-26T04:56:44;-21235.03;;;3.66;74.42
7337;BME280;54510;42.016;23.098;2022-12-26T04:59:09;-21242.00;;;3.91;73.58
7337;BME280;54510;42.016;23.098;2022-12-26T05:01:35;-21243.41;;;3.96;73.32
7337;BME280;54510;42.016;23.098;2022-12-26T05:04:19;-21244.81;;;4.01;72.89
7337;BME280;54510;42.016;23.098;2022-12-26T05:07:08;-21241.88;;;3.90;72.95
7337;BME280;54510;42.016;23.098;2022-12-26T05:09:54;-21237.97;;;3.76;72.85
7337;BME280;54510;42.016;23.098;2022-12-26T05:12:20;-21239.50;;;3.82;72.80
7337;BME280;54510;42.016;23.098;2022-12-26T05:14:45;-21235.03;;;3.66;72.89
7337;BME280;54510;42.016;23.098;2022-12-26T05:17:12;-21234.03;;;3.62;73.56
7337;BME280;54510;42.016;23.098;2022-12-26T05:19:56;-21237.25;;;3.74;72.70
7337;BME280;54510;42.016;23.098;2022-12-26T05:22:40;-21240.75;;;3.86;72.27
7337;BME280;54510;42.016;23.098;2022-12-26T05:25:28;-21242.00;;;3.91;72.11
7337;BME280;54510;42.016;23.098;2022-12-26T05:28:14;-21244.53;;;4.00;71.72
7337;BME280;54510;42.016;23.098;2022-12-26T05:30:58;-21241.72;;;3.90;71.98
7337;BME280;54510;42.016;23.098;2022-12-26T05:33:24;-21239.50;;;3.82;71.66
7337;BME280;54510;42.016;23.098;2022-12-26T05:36:08;-21233.75;;;3.61;71.83
7337;BME280;54510;42.016;23.098;2022-12-26T05:38:34;-21234.47;;;3.64;71.83
7337;BME280;54510;42.016;23.098;2022-12-26T05:41:00;-21232.78;;;3.57;71.89
7337;BME280;54510;42.016;23.098;2022-12-26T05:43:25;-21236.56;;;3.71;71.85
7337;BME280;54510;42.016;23.098;2022-12-26T05:45:51;-21234.88;;;3.65;71.35
7337;BME280;54510;42.016;23.098;2022-12-26T05:48:16;-21231.53;;;3.53;71.53
7337;BME280;54510;42.016;23.098;2022-12-26T05:50:42;-21230.81;;;3.50;71.66
7337;BME280;54510;42.016;23.098;2022-12-26T05:53:07;-21223.00;;;3.22;71.69
7337;BME280;54510;42.016;23.098;2022-12-26T05:55:32;-21230.25;;;3.48;71.81
7337;BME280;54510;42.016;23.098;2022-12-26T05:57:59;-21230.81;;;3.50;72.03
7337;BME280;54510;42.016;23.098;2022-12-26T06:00:25;-21228.59;;;3.42;72.26
7337;BME280;54510;42.016;23.098;2022-12-26T06:02:50;-21225.09;;;3.30;72.50
7337;BME280;54510;42.016;23.098;2022-12-26T06:05:16;-21227.19;;;3.37;72.68
7337;BME280;54510;42.016;23.098;2022-12-26T06:07:41;-21231.53;;;3.53;72.46
7337;BME280;54510;42.016;23.098;2022-12-26T06:10:07;-21229.44;;;3.45;72.26
7337;BME280;54510;42.016;23.098;2022-12-26T06:12:33;-21233.91;;;3.62;72.15
7337;BME280;54510;42.016;23.098;2022-12-26T06:14:59;-21235.72;;;3.68;72.05
7337;BME280;54510;42.016;23.098;2022-12-26T06:17:24;-21233.91;;;3.62;71.86
7337;BME280;54510;42.016;23.098;2022-12-26T06:19:49;-21232.94;;;3.58;71.46
7337;BME280;54510;42.016;23.098;2022-12-26T06:22:15;-21235.84;;;3.69;71.52
7337;BME280;54510;42.016;23.098;2022-12-26T06:24:40;-21234.03;;;3.62;71.42
7337;BME280;54510;42.016;23.098;2022-12-26T06:27:06;-21229.44;;;3.45;71.25
7337;BME280;54510;42.016;23.098;2022-12-26T06:29:31;-21230.81;;;3.50;72.14
7337;BME280;54510;42.016;23.098;2022-12-26T06:31:56;-21233.75;;;3.61;72.09
7337;BME280;54510;42.016;23.098;2022-12-26T06:34:22;-21226.75;;;3.36;72.58
7337;BME280;54510;42.016;23.098;2022-12-26T06:36:47;-21234.88;;;3.65;71.77
7337;BME280;54510;42.016;23.098;2022-12-26T06:39:13;-21239.38;;;3.81;71.19
7337;BME280;54510;42.016;23.098;2022-12-26T06:41:38;-21240.91;;;3.87;70.83
7337;BME280;54510;42.016;23.098;2022-12-26T06:44:04;-21241.59;;;3.89;70.91
7337;BME280;54510;42.016;23.098;2022-12-26T06:46:29;-21242.72;;;3.93;70.34
7337;BME280;54510;42.016;23.098;2022-12-26T06:48:55;-21243.13;;;3.95;70.38
7337;BME280;54510;42.016;23.098;2022-12-26T06:51:25;-21246.06;;;4.06;70.40
7337;BME280;54510;42.016;23.098;2022-12-26T06:53:51;-21247.75;;;4.12;69.73
7337;BME280;54510;42.016;23.098;2022-12-26T06:56:22;-21248.31;;;4.14;69.61
7337;BME280;54510;42.016;23.098;2022-12-26T06:58:53;-21249.00;;;4.16;69.57
7337;BME280;54510;42.016;23.098;2022-12-26T07:01:19;-21247.88;;;4.12;69.85
7337;BME280;54510;42.016;23.098;2022-12-26T07:03:45;-21250.41;;;4.21;70.09
7337;BME280;54510;42.016;23.098;2022-12-26T07:08:51;-21252.91;;;4.30;70.20
7337;BME280;54510;42.016;23.098;2022-12-26T07:11:20;-21258.25;;;4.50;69.84
7337;BME280;54510;42.016;23.098;2022-12-26T07:13:46;-21258.38;;;4.50;69.89
7337;BME280;54510;42.016;23.098;2022-12-26T07:16:12;-21259.34;;;4.54;69.63
7337;BME280;54510;42.016;23.098;2022-12-26T07:18:37;-21255.72;;;4.41;69.91
7337;BME280;54510;42.016;23.098;2022-12-26T07:21:13;-21260.19;;;4.57;69.97
7337;BME280;54510;42.016;23.098;2022-12-26T07:23:39;-21264.94;;;4.74;69.78
7337;BME280;54510;42.016;23.098;2022-12-26T07:26:05;-21268.56;;;4.87;69.63
7337;BME280;54510;42.016;23.098;2022-12-26T07:28:31;-21272.63;;;5.02;69.11
7337;BME280;54510;42.016;23.098;2022-12-26T07:30:56;-21274.31;;;5.08;69.33
7337;BME280;54510;42.016;23.098;2022-12-26T07:33:24;-21275.84;;;5.13;68.95
7337;BME280;54510;42.016;23.098;2022-12-26T07:35:49;-21282.28;;;5.37;69.09
7337;BME280;54510;42.016;23.098;2022-12-26T07:38:14;-21286.19;;;5.51;68.40
7337;BME280;54510;42.016;23.098;2022-12-26T07:40:40;-21287.00;;;5.54;68.03
7337;BME280;54510;42.016;23.098;2022-12-26T07:43:05;-21288.28;;;5.59;68.42
7337;BME280;54510;42.016;23.098;2022-12-26T07:45:31;-21290.50;;;5.67;67.85
7337;BME280;54510;42.016;23.098;2022-12-26T07:47:57;-21290.78;;;5.68;68.05
7337;BME280;54510;42.016;23.098;2022-12-26T07:50:23;-21291.63;;;5.71;68.24
7337;BME280;54510;42.016;23.098;2022-12-26T07:52:49;-21290.66;;;5.67;68.68
7337;BME280;54510;42.016;23.098;2022-12-26T07:55:14;-21290.50;;;5.67;69.11
7337;BME280;54510;42.016;23.098;2022-12-26T07:57:40;-21293.03;;;5.76;68.28
7337;BME280;54510;42.016;23.098;2022-12-26T08:00:06;-21296.94;;;5.90;68.69
7337;BME280;54510;42.016;23.098;2022-12-26T08:02:31;-21300.41;;;6.03;68.00
7337;BME280;54510;42.016;23.098;2022-12-26T08:04:57;-21301.81;;;6.08;68.02
7337;BME280;54510;42.016;23.098;2022-12-26T08:07:22;-21303.50;;;6.14;67.50
7337;BME280;54510;42.016;23.098;2022-12-26T08:09:48;-21304.31;;;6.17;67.57
7337;BME280;54510;42.016;23.098;2022-12-26T08:12:13;-21308.50;;;6.32;67.40
7337;BME280;54510;42.016;23.098;2022-12-26T08:14:39;-21309.63;;;6.36;67.18
7337;BME280;54510;42.016;23.098;2022-12-26T08:17:05;-21304.88;;;6.19;67.66
7337;BME280;54510;42.016;23.098;2022-12-26T08:19:30;-21310.31;;;6.39;67.61
7337;BME280;54510;42.016;23.098;2022-12-26T08:21:56;-21316.47;;;6.61;67.05
7337;BME280;54510;42.016;23.098;2022-12-26T08:24:21;-21317.16;;;6.63;66.73
7337;BME280;54510;42.016;23.098;2022-12-26T08:26:47;-21325.53;;;6.94;66.29
7337;BME280;54510;42.016;23.098;2022-12-26T08:29:12;-21321.34;;;6.79;66.44
7337;BME280;54510;42.016;23.098;2022-12-26T08:31:38;-21324.28;;;6.89;66.33
7337;BME280;54510;42.016;23.098;2022-12-26T08:34:03;-21328.44;;;7.04;66.08
7337;BME280;54510;42.016;23.098;2022-12-26T08:36:29;-21332.22;;;7.18;66.03
7337;BME280;54510;42.016;23.098;2022-12-26T08:38:54;-21342.53;;;7.56;64.67
7337;BME280;54510;42.016;23.098;2022-12-26T08:41:20;-21333.06;;;7.21;65.66
7337;BME280;54510;42.016;23.098;2022-12-26T08:43:49;-21342.38;;;7.55;65.36
7337;BME280;54510;42.016;23.098;2022-12-26T08:46:16;-21346.28;;;7.69;64.32
7337;BME280;54510;42.016;23.098;2022-12-26T08:48:41;-21346.28;;;7.69;64.75
7337;BME280;54510;42.016;23.098;2022-12-26T08:51:13;-21347.69;;;7.74;64.26
7337;BME280;54510;42.016;23.098;2022-12-26T08:53:39;-21341.13;;;7.50;64.43
7337;BME280;54510;42.016;23.098;2022-12-26T08:56:06;-21346.72;;;7.71;64.19
7337;BME280;54510;42.016;23.098;2022-12-26T08:58:32;-21352.00;;;7.90;63.85
7337;BME280;54510;42.016;23.098;2022-12-26T09:03:32;-21355.19;;;8.02;64.25
7337;BME280;54510;42.016;23.098;2022-12-26T09:05:59;-21352.56;;;7.92;64.19
7337;BME280;54510;42.016;23.098;2022-12-26T09:08:25;-21348.66;;;7.78;64.28
7337;BME280;54510;42.016;23.098;2022-12-26T09:10:50;-21350.59;;;7.85;64.70
7337;BME280;54510;42.016;23.098;2022-12-26T09:13:16;-21350.75;;;7.85;64.28
7337;BME280;54510;42.016;23.098;2022-12-26T09:15:43;-21353.53;;;7.96;64.22
7337;BME280;54510;42.016;23.098;2022-12-26T09:18:09;-21342.94;;;7.57;65.60
7337;BME280;54510;42.016;23.098;2022-12-26T09:20:35;-21342.53;;;7.56;66.06
7337;BME280;54510;42.016;23.098;2022-12-26T09:23:00;-21354.38;;;7.99;65.16
7337;BME280;54510;42.016;23.098;2022-12-26T09:25:25;-21361.31;;;8.24;64.36
7337;BME280;54510;42.016;23.098;2022-12-26T09:27:51;-21368.28;;;8.49;63.73
7337;BME280;54510;42.016;23.098;2022-12-26T09:30:18;-21372.31;;;8.64;63.20
7337;BME280;54510;42.016;23.098;2022-12-26T09:32:44;-21373.28;;;8.67;62.61
7337;BME280;54510;42.016;23.098;2022-12-26T09:35:10;-21374.00;;;8.70;62.62
7337;BME280;54510;42.016;23.098;2022-12-26T09:37:35;-21369.00;;;8.52;62.73
7337;BME280;54510;42.016;23.098;2022-12-26T09:40:01;-21374.56;;;8.72;63.06
7337;BME280;54510;42.016;23.098;2022-12-26T09:45:07;-21386.66;;;9.16;62.08
7337;BME280;54510;42.016;23.098;2022-12-26T09:50:33;-21389.00;;;9.25;61.17
7337;BME280;54510;42.016;23.098;2022-12-26T09:53:05;-21387.50;;;9.19;61.24
7337;BME280;54510;42.016;23.098;2022-12-26T09:55:46;-21393.59;;;9.41;60.90
7337;BME280;54510;42.016;23.098;2022-12-26T09:58:31;-21386.94;;;9.17;60.80
7337;BME280;54510;42.016;23.098;2022-12-26T10:01:19;-21387.63;;;9.20;61.38
7337;BME280;54510;42.016;23.098;2022-12-26T10:03:51;-21395.13;;;9.47;61.35
7337;BME280;54510;42.016;23.098;2022-12-26T10:06:22;-21401.53;;;9.70;60.65
7337;BME280;54510;42.016;23.098;2022-12-26T10:14:20;-21408.75;;;9.97;59.45
7337;BME280;54510;42.016;23.098;2022-12-26T10:17:17;-21407.63;;;9.93;59.86
7337;BME280;54510;42.016;23.098;2022-12-26T10:20:15;-21414.59;;;10.18;58.89
7337;BME280;54510;42.016;23.098;2022-12-26T10:25:56;-21409.03;;;9.98;59.15
7337;BME280;54510;42.016;23.098;2022-12-26T10:28:32;-21416.66;;;10.25;58.72
7337;BME280;54510;42.016;23.098;2022-12-26T10:31:03;-21415.41;;;10.21;58.80
7337;BME280;54510;42.016;23.098;2022-12-26T10:33:42;-21410.28;;;10.02;59.05
7337;BME280;54510;42.016;23.098;2022-12-26T10:36:17;-21417.22;;;10.27;58.86
7337;BME280;54510;42.016;23.098;2022-12-26T10:38:47;-21423.19;;;10.49;57.82
7337;BME280;54510;42.016;23.098;2022-12-26T10:41:45;-21425.97;;;10.59;57.93
7337;BME280;54510;42.016;23.098;2022-12-26T10:44:13;-21428.47;;;10.68;57.45
7337;BME280;54510;42.016;23.098;2022-12-26T10:46:54;-21431.25;;;10.79;57.93
7337;BME280;54510;42.016;23.098;2022-12-26T10:49:24;-21444.00;;;11.25;57.14
7337;BME280;54510;42.016;23.098;2022-12-26T10:51:54;-21445.41;;;11.30;56.35
7337;BME280;54510;42.016;23.098;2022-12-26T10:54:20;-21450.94;;;11.51;55.73
7337;BME280;54510;42.016;23.098;2022-12-26T10:56:48;-21459.28;;;11.81;54.93
7337;BME280;54510;42.016;23.098;2022-12-26T10:59:20;-21450.94;;;11.51;55.59
7337;BME280;54510;42.016;23.098;2022-12-26T11:01:46;-21459.28;;;11.81;55.00
7337;BME280;54510;42.016;23.098;2022-12-26T11:04:18;-21458.84;;;11.79;54.38
7337;BME280;54510;42.016;23.098;2022-12-26T11:06:44;-21464.13;;;11.99;54.63
7337;BME280;54510;42.016;23.098;2022-12-26T11:09:43;-21470.78;;;12.23;54.17
7337;BME280;54510;42.016;23.098;2022-12-26T11:12:38;-21474.50;;;12.37;53.65
7337;BME280;54510;42.016;23.098;2022-12-26T11:16:06;-21477.56;;;12.48;53.09
7337;BME280;54510;42.016;23.098;2022-12-26T11:18:15;-21473.97;;;12.35;52.52
7337;BME280;54510;42.016;23.098;2022-12-26T11:20:42;-21473.00;;;12.31;52.86
7337;BME280;54510;42.016;23.098;2022-12-26T11:23:28;-21475.22;;;12.39;52.74
7337;BME280;54510;42.016;23.098;2022-12-26T11:25:59;-21482.69;;;12.66;52.16
7337;BME280;54510;42.016;23.098;2022-12-26T11:28:31;-21488.91;;;12.89;51.93
7337;BME280;54510;42.016;23.098;2022-12-26T11:30:59;-21488.09;;;12.86;51.80
7337;BME280;54510;42.016;23.098;2022-12-26T11:33:42;-21489.06;;;12.90;51.86
7337;BME280;54510;42.016;23.098;2022-12-26T11:36:17;-21489.88;;;12.93;51.77
7337;BME280;54510;42.016;23.098;2022-12-26T11:41:18;-21487.66;;;12.85;52.00
7337;BME280;54510;42.016;23.098;2022-12-26T11:49:03;-21493.06;;;13.04;52.17
7337;BME280;54510;42.016;23.098;2022-12-26T11:51:39;-21495.28;;;13.13;51.94
7337;BME280;54510;42.016;23.098;2022-12-26T11:57:21;-21494.72;;;13.11;52.18
7337;BME280;54510;42.016;23.098;2022-12-26T11:59:45;-21495.28;;;13.13;52.21
7337;BME280;54510;42.016;23.098;2022-12-26T12:02:15;-21500.69;;;13.32;51.99
7337;BME280;54510;42.016;23.098;2022-12-26T12:04:41;-21503.31;;;13.42;51.40
7337;BME280;54510;42.016;23.098;2022-12-26T12:13:30;-21513.25;;;13.78;50.97
7337;BME280;54510;42.016;23.098;2022-12-26T12:23:52;-21529.72;;;14.39;49.94
7337;BME280;54510;42.016;23.098;2022-12-26T12:29:48;-21538.56;;;14.71;48.72
7337;BME280;54510;42.016;23.098;2022-12-26T12:38:30;-21544.22;;;14.92;47.41
7337;BME280;54510;42.016;23.098;2022-12-26T12:54:39;-21571.28;;;15.91;45.73
7337;BME280;54510;42.016;23.098;2022-12-26T13:02:40;-21584.38;;;16.39;44.93
7337;BME280;54510;42.016;23.098;2022-12-26T13:05:18;-21588.91;;;16.56;44.40
7337;BME280;54510;42.016;23.098;2022-12-26T13:07:50;-21594.72;;;16.77;44.22
7337;BME280;54510;42.016;23.098;2022-12-26T13:10:29;-21592.78;;;16.70;43.59
7337;BME280;54510;42.016;23.098;2022-12-26T13:12:59;-21601.31;;;17.02;43.32
7337;BME280;54510;42.016;23.098;2022-12-26T13:15:35;-21584.38;;;16.39;44.01
7337;BME280;54510;42.016;23.098;2022-12-26T13:18:10;-21583.81;;;16.37;44.00
7337;BME280;54510;42.016;23.098;2022-12-26T13:20:51;-21599.66;;;16.95;42.85
7337;BME280;54510;42.016;23.098;2022-12-26T13:23:28;-21608.47;;;17.28;43.55
7337;BME280;54510;42.016;23.098;2022-12-26T13:26:18;-21617.28;;;17.60;42.20
7337;BME280;54510;42.016;23.098;2022-12-26T13:29:12;-21615.63;;;17.54;42.69
7337;BME280;54510;42.016;23.098;2022-12-26T13:31:37;-21618.53;;;17.65;41.96
7337;BME280;54510;42.016;23.098;2022-12-26T13:34:04;-21612.59;;;17.43;42.28
7337;BME280;54510;42.016;23.098;2022-12-26T13:36:37;-21612.59;;;17.43;43.77
7337;BME280;54510;42.016;23.098;2022-12-26T13:41:29;-21616.03;;;17.56;42.62
7337;BME280;54510;42.016;23.098;2022-12-26T13:49:38;-21618.94;;;17.66;41.99
7337;BME280;54510;42.016;23.098;2022-12-26T13:55:17;-21617.56;;;17.61;42.88
7337;BME280;54510;42.016;23.098;2022-12-26T14:02:56;-21617.41;;;17.61;44.20
7337;BME280;54510;42.016;23.098;2022-12-26T14:10:39;-21626.22;;;17.93;42.32
7337;BME280;54510;42.016;23.098;2022-12-26T14:13:49;-21629.94;;;18.07;41.94
7337;BME280;54510;42.016;23.098;2022-12-26T14:16:52;-21623.75;;;17.84;42.46
7337;BME280;54510;42.016;23.098;2022-12-26T14:30:21;-21600.06;;;16.97;43.56
7337;BME280;54510;42.016;23.098;2022-12-26T14:35:46;-21592.50;;;16.69;44.43
7337;BME280;54510;42.016;23.098;2022-12-26T14:41:12;-21570.16;;;15.87;46.30
7337;BME280;54510;42.016;23.098;2022-12-26T14:47:03;-21543.41;;;14.89;50.82
7337;BME280;54510;42.016;23.098;2022-12-26T14:51:54;-21519.34;;;14.01;54.22
7337;BME280;54510;42.016;23.098;2022-12-26T14:54:40;-21509.25;;;13.64;55.60
7337;BME280;54510;42.016;23.098;2022-12-26T15:00:33;-21500.53;;;13.32;57.04
7337;BME280;54510;42.016;23.098;2022-12-26T15:05:32;-21480.06;;;12.57;59.54
7337;BME280;54510;42.016;23.098;2022-12-26T15:14:06;-21460.94;;;11.87;61.85
7337;BME280;54510;42.016;23.098;2022-12-26T15:16:36;-21478.25;;;12.50;60.47
7337;BME280;54510;42.016;23.098;2022-12-26T15:27:24;-21448.59;;;11.42;63.42
7337;BME280;54510;42.016;23.098;2022-12-26T15:30:19;-21448.16;;;11.40;63.78
7337;BME280;54510;42.016;23.098;2022-12-26T15:32:51;-21456.78;;;11.72;62.67
7337;BME280;54510;42.016;23.098;2022-12-26T15:35:30;-21444.97;;;11.29;63.33
7337;BME280;54510;42.016;23.098;2022-12-26T15:40:51;-21438.19;;;11.04;64.63
7337;BME280;54510;42.016;23.098;2022-12-26T15:55:07;-21414.16;;;10.16;66.87
7337;BME280;54510;42.016;23.098;2022-12-26T16:08:58;-21414.44;;;10.17;66.74
7337;BME280;54510;42.016;23.098;2022-12-26T16:11:40;-21408.47;;;9.96;67.65
7337;BME280;54510;42.016;23.098;2022-12-26T16:14:12;-21405.97;;;9.86;67.61
7337;BME280;54510;42.016;23.098;2022-12-26T16:16:37;-21402.22;;;9.73;68.43
7337;BME280;54510;42.016;23.098;2022-12-26T16:19:18;-21391.78;;;9.35;69.67
7337;BME280;54510;42.016;23.098;2022-12-26T16:21:52;-21387.91;;;9.21;70.15
7337;BME280;54510;42.016;23.098;2022-12-26T16:24:39;-21389.44;;;9.26;69.48
7337;BME280;54510;42.016;23.098;2022-12-26T16:27:07;-21391.78;;;9.35;69.48
7337;BME280;54510;42.016;23.098;2022-12-26T16:29:42;-21389.56;;;9.27;69.34
7337;BME280;54510;42.016;23.098;2022-12-26T16:32:15;-21393.75;;;9.42;69.14
7337;BME280;54510;42.016;23.098;2022-12-26T16:34:41;-21389.00;;;9.25;69.28
7337;BME280;54510;42.016;23.098;2022-12-26T16:37:10;-21389.56;;;9.27;69.33
7337;BME280;54510;42.016;23.098;2022-12-26T16:39:39;-21389.00;;;9.25;69.42
7337;BME280;54510;42.016;23.098;2022-12-26T16:42:26;-21388.03;;;9.21;68.78
7337;BME280;54510;42.016;23.098;2022-12-26T16:44:54;-21383.72;;;9.05;69.78
7337;BME280;54510;42.016;23.098;2022-12-26T16:47:20;-21379.13;;;8.89;70.39
7337;BME280;54510;42.016;23.098;2022-12-26T16:49:46;-21381.78;;;8.98;69.74